Latest Weather Observations for Low Isles

IDQ60801

Issued at 8:05 am EST Sunday 20 April 2014 (issued every 30 minutes, with the page automatically refreshed every 10 minutes)

About weather observations | Map of weather stations | Latest weather observations for QLD | Other Formats
Station Details ID: 031037 Name: LOW ISLES LIGHTHOUSE Lat: -16.38 Lon: 145.56 Height: 2.9 m
Data from the previous 72 hours. | See also: Recent months at Low Isles
Date/Time
EST
Temp
°C
App
Temp
°C
Dew
Point
Rel
Hum
%
Delta-T
°C
Wind Press
QNH
hPa
Press
MSL
hPa
Rain
since 9 am
mm
Dir
 
Spd
km/h
Gust
km/h
Spd
kts
Gust
kts
20/08:00am 26.2 23.6 19.6 67 4.3 ESE 32 41 17 22 1014.1 - 0.0
20/07:30am 25.5 22.5 18.7 66 4.3 ESE 32 39 17 21 1013.9 - 0.0
20/07:00am 25.6 22.8 19.0 67 4.2 ESE 32 37 17 20 1013.5 - 0.0
20/06:30am 25.7 23.3 19.1 67 4.2 SE 30 41 16 22 1013.3 - 0.0
20/06:00am 25.7 23.2 19.8 70 3.8 ESE 32 37 17 20 1013.0 1012.9 0.0
20/05:30am 25.8 23.5 20.1 71 3.7 ESE 32 39 17 21 1012.6 - 0.0
20/05:00am 25.9 23.3 19.8 69 4.0 ESE 33 39 18 21 1012.4 - 0.0
20/04:30am 25.8 24.4 20.4 72 3.5 SE 28 35 15 19 1012.2 - 0.0
20/04:00am 25.6 23.6 19.9 70 3.7 ESE 30 37 16 20 1012.2 - 0.0
20/03:30am 25.4 25.4 21.7 80 2.5 SE 24 32 13 17 1012.3 - 0.0
20/03:00am 25.8 26.0 22.1 80 2.5 SSE 24 28 13 15 1012.6 1012.5 0.0
20/02:30am 25.7 25.3 20.9 75 3.2 SSE 24 28 13 15 1012.6 - 0.0
20/02:00am 25.9 26.2 21.6 77 2.9 SSE 22 26 12 14 1012.8 - 0.0
20/01:30am 25.8 25.0 20.1 71 3.7 ESE 24 30 13 16 1012.9 - 0.0
20/01:00am 25.9 25.2 20.2 71 3.7 SE 24 32 13 17 1013.3 - 0.0
20/12:30am 26.0 25.4 20.6 72 3.5 ESE 24 30 13 16 1013.6 - 0.0
20/12:00am 26.1 26.0 20.7 72 3.5 ESE 22 30 12 16 1013.9 1013.8 0.0
 
Date/Time
EST
Temp
°C
App
Temp
°C
Dew
Point
Rel
Hum
%
Delta-T
°C
Wind Press
QNH
hPa
Press
MSL
hPa
Rain
since 9 am
mm
Dir
 
Spd
km/h
Gust
km/h
Spd
kts
Gust
kts
19/11:30pm 26.0 25.2 20.1 70 3.8 ESE 24 32 13 17 1014.0 - 0.0
19/11:00pm 26.0 25.2 20.1 70 3.8 ESE 24 30 13 16 1014.3 - 0.0
19/10:30pm 26.0 25.3 20.3 71 3.7 ESE 24 33 13 18 1014.5 - 0.0
19/10:00pm 26.1 25.1 20.4 71 3.7 ESE 26 35 14 19 1014.6 - 0.0
19/09:30pm 26.1 25.0 20.2 70 3.8 ESE 26 35 14 19 1014.7 - 0.0
19/09:00pm 26.1 25.0 20.2 70 3.8 ESE 26 32 14 17 1014.6 1014.5 0.0
19/08:30pm 26.1 25.1 20.4 71 3.7 ESE 26 33 14 18 1014.5 - 0.0
19/08:00pm 25.9 24.8 20.2 71 3.7 ESE 26 33 14 18 1014.2 - 0.0
19/07:30pm 26.4 25.1 20.7 71 3.7 ESE 28 33 15 18 1014.0 - 0.0
19/07:00pm 26.1 24.6 20.2 70 3.8 ESE 28 35 15 19 1013.6 - 0.0
19/06:30pm 26.1 24.6 20.2 70 3.8 ESE 28 35 15 19 1013.3 - 0.0
19/06:00pm 26.3 24.4 20.2 69 4.0 SE 30 35 16 19 1013.2 1013.1 0.0
19/05:30pm 26.5 24.9 20.1 68 4.2 SE 28 32 15 17 1013.0 - 0.0
19/05:00pm 27.0 25.4 20.1 66 4.5 SE 28 33 15 18 1012.6 - 0.0
19/04:30pm 27.5 26.7 20.1 64 4.8 SE 24 30 13 16 1012.5 - 0.0
19/04:00pm 27.9 26.2 19.9 61 5.2 SE 28 32 15 17 1012.3 - 0.0
19/03:30pm 28.3 27.2 19.5 59 5.7 SE 24 32 13 17 1012.2 - 0.0
19/03:00pm 28.7 28.2 20.7 62 5.3 SE 24 30 13 16 1012.4 1012.3 0.0
19/02:30pm 28.8 28.0 20.8 62 5.3 SE 26 33 14 18 1012.7 - 0.0
19/02:00pm 28.8 28.1 21.0 62 5.2 ESE 26 32 14 17 1013.0 - 0.0
19/01:30pm 28.5 28.1 21.0 64 5.0 SE 24 30 13 16 1013.4 - 0.0
19/01:00pm 29.8 30.4 22.8 66 4.8 ESE 24 32 13 17 1013.9 - 0.0
19/12:30pm 29.2 29.3 21.9 64 4.9 ESE 24 30 13 16 1014.2 - 0.0
19/12:00pm 28.7 28.5 21.2 64 5.0 ESE 24 32 13 17 1014.7 1014.6 0.0
19/11:30am 29.3 29.5 22.0 64 4.9 ESE 24 30 13 16 1015.0 - 0.0
19/11:00am 29.0 29.0 21.7 64 4.9 ESE 24 30 13 16 1015.3 - 0.0
19/10:30am 28.9 29.3 21.7 65 4.8 ESE 22 30 12 16 1015.5 - 0.0
19/10:00am 28.5 28.4 21.5 66 4.7 E 24 32 13 17 1015.7 - 0.0
19/09:30am 27.6 27.1 21.4 69 4.1 E 26 32 14 17 1015.6 - 0.0
19/09:00am 27.0 27.4 21.7 73 3.5 E 22 28 12 15 1015.3 1015.2 1.8
19/08:30am 26.4 26.4 20.9 72 3.6 ESE 22 28 12 15 1015.1 - 1.8
19/08:00am 26.4 26.0 21.6 75 3.2 ESE 26 35 14 19 1014.8 - 1.8
19/07:30am 25.8 25.2 21.2 76 3.0 E 26 32 14 17 1014.4 - 1.8
19/07:00am 25.6 25.5 21.5 78 2.7 E 24 30 13 16 1014.2 - 1.8
19/06:30am 25.5 25.9 21.8 80 2.5 ESE 22 28 12 15 1014.0 - 1.8
19/06:00am 25.2 26.3 21.3 79 2.6 ESE 17 24 9 13 1013.7 1013.6 1.8
19/05:30am 25.3 26.2 21.6 80 2.5 ESE 19 26 10 14 1013.5 - 1.6
19/05:00am 25.2 26.2 21.7 81 2.3 ESE 19 24 10 13 1013.5 - 1.6
19/04:30am 25.6 26.1 21.9 80 2.5 ESE 22 28 12 15 1013.3 - 1.6
19/04:00am 25.6 26.6 22.1 81 2.3 ESE 20 26 11 14 1013.4 - 1.6
19/03:30am 25.4 25.7 21.5 79 2.6 ESE 22 32 12 17 1013.6 - 1.6
19/03:00am 25.7 26.5 21.8 79 2.6 ESE 20 26 11 14 1013.7 1013.6 1.6
19/02:30am 25.6 26.6 22.1 81 2.3 ESE 20 24 11 13 1013.7 - 1.6
19/02:00am 25.6 26.4 21.7 79 2.6 E 20 26 11 14 1014.0 - 1.6
19/01:30am 25.8 26.6 21.7 78 2.7 ESE 20 24 11 13 1014.2 - 1.6
19/01:00am 25.8 26.3 21.2 76 3.0 ESE 20 26 11 14 1014.5 - 1.6
19/12:30am 25.9 26.7 21.8 78 2.7 ESE 20 24 11 13 1014.8 - 1.6
19/12:00am 26.0 26.0 21.7 77 2.9 ESE 24 28 13 15 1015.1 1015.0 1.6
 
Date/Time
EST
Temp
°C
App
Temp
°C
Dew
Point
Rel
Hum
%
Delta-T
°C
Wind Press
QNH
hPa
Press
MSL
hPa
Rain
since 9 am
mm
Dir
 
Spd
km/h
Gust
km/h
Spd
kts
Gust
kts
18/11:30pm 26.3 26.3 22.4 79 2.6 SE 26 32 14 17 1015.3 - 1.6
18/11:00pm 26.5 26.8 23.0 81 2.4 SE 26 30 14 16 1015.3 - 1.6
18/10:30pm 25.9 26.2 22.2 80 2.5 ESE 24 32 13 17 1015.4 - 1.6
18/10:00pm 25.9 26.5 22.8 83 2.1 ESE 24 30 13 16 1015.6 - 1.6
18/09:30pm 25.2 25.6 22.5 85 1.8 ESE 24 32 13 17 1015.5 - 1.6
18/09:00pm 25.0 27.3 23.4 91 1.1 SE 17 20 9 11 1015.5 1015.4 1.6
18/08:30pm 24.2 26.8 22.6 91 1.1 SE 13 17 7 9 1015.4 - 1.6
18/08:00pm 24.5 25.8 22.4 88 1.4 E 19 26 10 14 1015.0 - 1.6
18/07:41pm 25.0 23.9 22.5 86 1.7 E 32 35 17 19 1014.9 - 1.2
18/07:33pm 26.4 24.0 21.8 76 3.1 ESE 37 44 20 24 1014.7 - 0.0
18/07:30pm 26.8 27.3 23.3 81 2.4 SSE 26 32 14 17 1014.6 - 0.0
18/07:00pm 26.7 27.4 23.0 80 2.5 SSE 24 28 13 15 1014.1 - 0.0
18/06:30pm 25.9 26.3 21.8 78 2.7 SSE 22 28 12 15 1013.8 - 0.0
18/06:00pm 26.7 27.3 22.8 79 2.6 SE 24 28 13 15 1013.5 1013.4 0.0
18/05:30pm 26.7 27.5 21.7 74 3.3 SE 20 26 11 14 1013.2 - 0.0
18/05:00pm 27.6 28.7 22.3 73 3.6 ESE 20 28 11 15 1013.0 - 0.0
18/04:30pm 27.8 27.9 21.8 70 4.0 SE 24 30 13 16 1012.8 - 0.0
18/04:00pm 28.8 29.5 23.0 71 4.0 SE 24 30 13 16 1012.7 - 0.0
18/03:30pm 29.0 29.9 22.7 69 4.3 ESE 22 28 12 15 1012.6 - 0.0
18/03:00pm 29.5 29.9 22.5 66 4.8 ESE 24 30 13 16 1012.5 1012.4 0.0
18/02:30pm 29.3 28.7 22.0 64 4.9 ESE 28 33 15 18 1012.6 - 0.0
18/02:00pm 29.0 29.2 22.0 66 4.7 ESE 24 30 13 16 1012.7 - 0.0
18/01:30pm 29.6 30.2 22.8 67 4.6 ESE 24 32 13 17 1012.9 - 0.0
18/01:00pm 30.5 31.8 23.4 66 4.9 E 22 30 12 16 1013.2 - 0.0
18/12:30pm 29.8 30.5 23.0 67 4.7 ESE 24 30 13 16 1013.5 - 0.0
18/12:00pm 28.8 28.7 22.3 68 4.4 SE 26 32 14 17 1013.9 1013.8 0.0
18/11:30am 29.7 30.4 23.6 69 4.2 ESE 26 32 14 17 1014.2 - 0.0
18/11:00am 29.0 28.3 22.5 68 4.4 ESE 30 35 16 19 1014.5 - 0.0
18/10:30am 28.2 27.7 22.9 73 3.6 SE 30 39 16 21 1014.7 - 0.0
18/10:00am 27.1 28.0 23.3 80 2.6 ESE 24 30 13 16 1014.9 - 0.0
18/09:30am 27.2 28.8 23.2 79 2.7 ESE 20 24 11 13 1014.8 - 0.0
18/09:00am 26.0 27.1 22.3 80 2.5 ESE 20 39 11 21 1014.7 1014.6 4.6
18/08:30am 26.3 25.5 23.0 82 2.2 ESE 32 35 17 19 1014.5 - 4.6
18/08:00am 26.7 27.0 23.6 83 2.1 SSE 28 33 15 18 1014.2 - 4.6
18/07:30am 26.5 26.2 23.2 82 2.2 SE 30 37 16 20 1013.9 - 4.6
18/07:00am 26.1 25.3 23.0 83 2.1 SE 32 37 17 20 1013.6 - 4.6
18/06:30am 25.5 25.1 23.0 86 1.7 SE 30 37 16 20 1013.3 - 4.6
18/06:00am 25.1 25.3 22.8 87 1.6 E 26 33 14 18 1013.3 1013.2 4.4
18/05:30am 26.4 26.2 22.7 80 2.5 SE 28 33 15 18 1012.9 - 3.6
18/05:00am 26.4 25.5 22.9 81 2.4 SE 32 37 17 20 1012.5 - 3.6
18/04:30am 26.4 26.0 23.1 82 2.2 SE 30 37 16 20 1012.4 - 3.6
18/04:00am 26.4 26.4 23.1 82 2.2 SE 28 37 15 20 1012.4 - 3.6
18/03:30am 26.5 27.1 23.4 83 2.1 SE 26 35 14 19 1012.3 - 3.6
18/03:00am 26.5 26.6 23.2 82 2.2 SE 28 33 15 18 1012.4 1012.3 3.6
18/02:30am 26.5 27.2 23.0 81 2.4 ESE 24 30 13 16 1012.7 - 3.6
18/02:00am 26.5 27.3 23.2 82 2.2 ESE 24 30 13 16 1013.0 - 3.6
18/01:30am 26.6 27.0 23.1 81 2.4 ESE 26 32 14 17 1013.3 - 3.6
18/01:00am 26.5 27.4 23.4 83 2.1 ESE 24 32 13 17 1013.6 - 3.6
18/12:30am 26.5 27.1 23.4 83 2.1 ESE 26 33 14 18 1014.2 - 3.6
18/12:00am 26.3 27.2 23.4 84 2.0 SE 24 30 13 16 1014.6 1014.5 3.6
 
Date/Time
EST
Temp
°C
App
Temp
°C
Dew
Point
Rel
Hum
%
Delta-T
°C
Wind Press
QNH
hPa
Press
MSL
hPa
Rain
since 9 am
mm
Dir
 
Spd
km/h
Gust
km/h
Spd
kts
Gust
kts
17/11:30pm 26.1 27.5 22.6 81 2.4 E 19 24 10 13 1015.0 - 3.6
17/11:00pm 26.7 27.0 23.6 83 2.1 SE 28 33 15 18 1015.2 - 3.6
17/10:30pm 26.4 25.8 23.3 83 2.1 SSE 32 39 17 21 1015.3 - 3.6
17/10:00pm 26.6 26.5 23.5 83 2.1 SE 30 35 16 19 1015.3 - 3.6
17/09:30pm 27.0 27.1 23.9 83 2.1 SE 30 37 16 20 1015.4 - 3.6
17/09:00pm 26.8 26.2 23.3 81 2.4 SE 32 39 17 21 1015.2 1015.1 3.6
17/08:30pm 26.7 25.9 23.4 82 2.3 SE 33 39 18 21 1015.1 - 3.6
17/08:00pm 26.9 26.0 23.8 83 2.1 SE 35 41 19 22 1014.8 - 3.6
17/07:30pm 26.9 26.2 23.6 82 2.3 SE 33 39 18 21 1014.5 - 3.6
17/07:00pm 26.7 25.9 23.4 82 2.3 SE 33 41 18 22 1014.1 - 3.6
17/06:30pm 27.0 26.3 24.1 84 2.0 SE 35 44 19 24 1013.6 - 3.6
17/06:00pm 27.0 26.2 23.3 80 2.5 SE 33 41 18 22 1013.2 1013.1 3.6
17/05:30pm 27.1 26.0 22.5 76 3.1 SE 32 39 17 21 1013.0 - 3.6
17/05:00pm 27.5 27.0 22.9 76 3.1 ESE 30 37 16 20 1012.5 - 3.6
17/04:30pm 27.6 27.4 23.4 78 2.9 ESE 30 37 16 20 1012.3 - 3.6
17/04:00pm 27.6 27.5 23.6 79 2.7 ESE 30 37 16 20 1012.1 - 3.6
17/03:30pm 27.8 28.0 23.4 77 3.0 ESE 28 33 15 18 1012.0 - 3.6
17/03:00pm 27.8 28.5 23.6 78 2.9 ESE 26 33 14 18 1012.2 1012.1 3.6
17/02:30pm 27.7 28.9 23.9 80 2.6 SE 24 32 13 17 1012.3 - 3.6
17/02:00pm 27.9 29.0 23.7 78 2.9 SE 24 30 13 16 1012.5 - 3.6
17/01:30pm 28.2 29.5 24.0 78 2.9 SE 24 28 13 15 1013.0 - 3.6
17/01:00pm 27.8 29.5 24.0 80 2.6 SE 22 28 12 15 1013.3 - 3.6
17/12:30pm 28.1 29.8 24.1 79 2.8 SE 22 26 12 14 1013.6 - 3.6
17/12:00pm 27.5 29.6 24.1 82 2.3 SE 20 28 11 15 1014.0 1013.9 3.6
17/11:30am 27.1 29.5 24.6 86 1.7 SSE 20 24 11 13 1014.6 - 3.6
17/11:00am 26.6 29.1 24.4 88 1.5 SSE 19 24 10 13 1014.9 - 3.6
17/10:30am 26.0 29.0 24.6 92 1.0 S 17 20 9 11 1015.3 - 3.6
17/10:00am 25.0 26.7 23.4 91 1.1 S 20 28 11 15 1015.3 - 3.4
17/09:30am 24.3 24.7 23.1 93 0.8 SSE 26 33 14 18 1015.2 - 3.2
17/09:18am 23.3 21.5 21.6 90 1.1 SSE 33 39 18 21 1015.4 - 3.2
17/09:10am 23.9 21.1 22.5 92 0.9 ESE 41 48 22 26 1015.2 - 1.4
17/09:00am 23.7 19.8 21.2 86 1.6 E 43 57 23 31 1015.2 1015.1 2.0
17/08:50am 25.6 25.8 23.5 88 1.4 E 28 46 15 25 1015.0 - 1.8
17/08:30am 25.7 24.8 22.2 81 2.3 E 30 37 16 20 1014.8 - 1.2

Other Formats:

Comma delimited format used in spreadsheet applications
http://www.bom.gov.au/fwo/IDQ60801/IDQ60801.94285.axf

JavaScript Object Notation format (JSON) in row-major order
http://www.bom.gov.au/fwo/IDQ60801/IDQ60801.94285.json